sensor_id;sensor_type;location;lat;lon;timestamp;P1;durP1;ratioP1;P2;durP2;ratioP2
70301;SDS011;57706;56.326;43.882;2023-05-02T00:02:07;10.32;;;7.03;;
70301;SDS011;57706;56.326;43.882;2023-05-02T00:04:33;8.70;;;6.72;;
70301;SDS011;57706;56.326;43.882;2023-05-02T00:06:59;9.05;;;6.40;;
70301;SDS011;57706;56.326;43.882;2023-05-02T00:09:25;12.13;;;7.88;;
70301;SDS011;57706;56.326;43.882;2023-05-02T00:11:51;14.13;;;7.40;;
70301;SDS011;57706;56.326;43.882;2023-05-02T00:14:17;9.38;;;7.28;;
70301;SDS011;57706;56.326;43.882;2023-05-02T00:16:42;10.23;;;7.60;;
70301;SDS011;57706;56.326;43.882;2023-05-02T00:19:08;11.10;;;7.93;;
70301;SDS011;57706;56.326;43.882;2023-05-02T00:21:34;12.05;;;7.85;;
70301;SDS011;57706;56.326;43.882;2023-05-02T00:24:00;10.35;;;8.25;;
70301;SDS011;57706;56.326;43.882;2023-05-02T00:26:26;12.02;;;8.35;;
70301;SDS011;57706;56.326;43.882;2023-05-02T00:28:53;12.45;;;8.38;;
70301;SDS011;57706;56.326;43.882;2023-05-02T00:31:19;12.43;;;8.38;;
70301;SDS011;57706;56.326;43.882;2023-05-02T00:33:45;11.82;;;8.77;;
70301;SDS011;57706;56.326;43.882;2023-05-02T00:36:17;15.20;;;9.18;;
70301;SDS011;57706;56.326;43.882;2023-05-02T00:38:44;11.05;;;8.32;;
70301;SDS011;57706;56.326;43.882;2023-05-02T00:41:11;11.88;;;8.77;;
70301;SDS011;57706;56.326;43.882;2023-05-02T00:43:37;11.05;;;7.82;;
70301;SDS011;57706;56.326;43.882;2023-05-02T00:46:07;10.73;;;7.82;;
70301;SDS011;57706;56.326;43.882;2023-05-02T00:48:33;11.55;;;8.15;;
70301;SDS011;57706;56.326;43.882;2023-05-02T00:51:01;13.45;;;8.85;;
70301;SDS011;57706;56.326;43.882;2023-05-02T00:53:34;10.25;;;7.82;;
70301;SDS011;57706;56.326;43.882;2023-05-02T00:56:00;9.73;;;7.20;;
70301;SDS011;57706;56.326;43.882;2023-05-02T00:58:27;9.68;;;6.55;;
70301;SDS011;57706;56.326;43.882;2023-05-02T01:00:58;12.00;;;7.22;;
70301;SDS011;57706;56.326;43.882;2023-05-02T01:11:34;7.97;;;7.18;;
70301;SDS011;57706;56.326;43.882;2023-05-02T01:14:16;9.23;;;7.07;;
70301;SDS011;57706;56.326;43.882;2023-05-02T01:16:44;9.20;;;6.80;;
70301;SDS011;57706;56.326;43.882;2023-05-02T01:19:18;7.72;;;6.28;;
70301;SDS011;57706;56.326;43.882;2023-05-02T01:21:51;7.97;;;6.72;;
70301;SDS011;57706;56.326;43.882;2023-05-02T01:24:21;7.60;;;5.95;;
70301;SDS011;57706;56.326;43.882;2023-05-02T01:26:53;7.55;;;6.40;;
70301;SDS011;57706;56.326;43.882;2023-05-02T01:29:22;10.95;;;6.63;;
70301;SDS011;57706;56.326;43.882;2023-05-02T01:31:51;7.35;;;5.85;;
70301;SDS011;57706;56.326;43.882;2023-05-02T01:34:21;10.82;;;5.93;;
70301;SDS011;57706;56.326;43.882;2023-05-02T01:36:47;8.55;;;5.72;;
70301;SDS011;57706;56.326;43.882;2023-05-02T01:39:19;8.45;;;5.78;;
70301;SDS011;57706;56.326;43.882;2023-05-02T01:41:48;10.77;;;5.85;;
70301;SDS011;57706;56.326;43.882;2023-05-02T01:44:17;8.60;;;5.65;;
70301;SDS011;57706;56.326;43.882;2023-05-02T01:46:46;6.65;;;5.55;;
70301;SDS011;57706;56.326;43.882;2023-05-02T01:49:13;8.23;;;4.47;;
70301;SDS011;57706;56.326;43.882;2023-05-02T01:51:42;8.98;;;5.88;;
70301;SDS011;57706;56.326;43.882;2023-05-02T01:54:11;6.35;;;5.53;;
70301;SDS011;57706;56.326;43.882;2023-05-02T01:56:39;6.15;;;5.10;;
70301;SDS011;57706;56.326;43.882;2023-05-02T01:59:09;7.47;;;5.28;;
70301;SDS011;57706;56.326;43.882;2023-05-02T02:01:37;6.45;;;5.28;;
70301;SDS011;57706;56.326;43.882;2023-05-02T02:04:05;7.43;;;5.30;;
70301;SDS011;57706;56.326;43.882;2023-05-02T02:06:33;5.90;;;5.15;;
70301;SDS011;57706;56.326;43.882;2023-05-02T02:08:59;7.50;;;6.00;;
70301;SDS011;57706;56.326;43.882;2023-05-02T02:11:34;6.03;;;4.97;;
70301;SDS011;57706;56.326;43.882;2023-05-02T02:14:27;6.18;;;5.18;;
70301;SDS011;57706;56.326;43.882;2023-05-02T02:19:54;4.82;;;3.90;;
70301;SDS011;57706;56.326;43.882;2023-05-02T02:22:22;5.03;;;3.97;;
70301;SDS011;57706;56.326;43.882;2023-05-02T02:24:51;6.38;;;4.45;;
70301;SDS011;57706;56.326;43.882;2023-05-02T02:27:19;5.03;;;3.80;;
70301;SDS011;57706;56.326;43.882;2023-05-02T02:29:45;4.45;;;4.05;;
70301;SDS011;57706;56.326;43.882;2023-05-02T02:32:11;3.47;;;2.97;;
70301;SDS011;57706;56.326;43.882;2023-05-02T02:34:37;3.80;;;3.05;;
70301;SDS011;57706;56.326;43.882;2023-05-02T02:37:46;4.15;;;3.75;;
70301;SDS011;57706;56.326;43.882;2023-05-02T02:45:42;4.32;;;3.63;;
70301;SDS011;57706;56.326;43.882;2023-05-02T02:54:13;4.53;;;3.92;;
70301;SDS011;57706;56.326;43.882;2023-05-02T02:56:50;6.93;;;3.83;;
70301;SDS011;57706;56.326;43.882;2023-05-02T02:59:33;5.05;;;4.10;;
70301;SDS011;57706;56.326;43.882;2023-05-02T03:02:06;6.50;;;3.42;;
70301;SDS011;57706;56.326;43.882;2023-05-02T03:04:35;10.95;;;6.40;;
70301;SDS011;57706;56.326;43.882;2023-05-02T03:07:03;6.97;;;4.25;;
70301;SDS011;57706;56.326;43.882;2023-05-02T03:09:42;3.90;;;3.50;;
70301;SDS011;57706;56.326;43.882;2023-05-02T03:12:13;7.65;;;4.03;;
70301;SDS011;57706;56.326;43.882;2023-05-02T03:14:39;4.38;;;3.95;;
70301;SDS011;57706;56.326;43.882;2023-05-02T03:17:05;6.20;;;3.95;;
70301;SDS011;57706;56.326;43.882;2023-05-02T03:19:35;5.03;;;3.33;;
70301;SDS011;57706;56.326;43.882;2023-05-02T03:22:03;3.22;;;2.85;;
70301;SDS011;57706;56.326;43.882;2023-05-02T03:24:30;4.32;;;3.38;;
70301;SDS011;57706;56.326;43.882;2023-05-02T03:26:56;4.18;;;3.13;;
70301;SDS011;57706;56.326;43.882;2023-05-02T03:29:28;4.13;;;3.30;;
70301;SDS011;57706;56.326;43.882;2023-05-02T03:31:54;4.00;;;3.22;;
70301;SDS011;57706;56.326;43.882;2023-05-02T03:34:21;3.45;;;2.83;;
70301;SDS011;57706;56.326;43.882;2023-05-02T03:36:49;3.92;;;3.20;;
70301;SDS011;57706;56.326;43.882;2023-05-02T03:39:15;5.68;;;3.00;;
70301;SDS011;57706;56.326;43.882;2023-05-02T03:41:42;3.00;;;2.60;;
70301;SDS011;57706;56.326;43.882;2023-05-02T03:44:13;4.68;;;3.42;;
70301;SDS011;57706;56.326;43.882;2023-05-02T03:46:39;3.53;;;3.22;;
70301;SDS011;57706;56.326;43.882;2023-05-02T03:49:09;5.85;;;3.10;;
70301;SDS011;57706;56.326;43.882;2023-05-02T03:51:35;4.20;;;3.10;;
70301;SDS011;57706;56.326;43.882;2023-05-02T03:54:01;6.18;;;3.28;;
70301;SDS011;57706;56.326;43.882;2023-05-02T03:56:27;5.72;;;3.83;;
70301;SDS011;57706;56.326;43.882;2023-05-02T03:59:08;4.35;;;3.00;;
70301;SDS011;57706;56.326;43.882;2023-05-02T04:01:34;3.55;;;2.97;;
70301;SDS011;57706;56.326;43.882;2023-05-02T04:04:01;5.68;;;3.20;;
70301;SDS011;57706;56.326;43.882;2023-05-02T04:06:31;3.88;;;3.30;;
70301;SDS011;57706;56.326;43.882;2023-05-02T04:09:01;7.07;;;3.05;;
70301;SDS011;57706;56.326;43.882;2023-05-02T04:11:34;6.13;;;3.25;;
70301;SDS011;57706;56.326;43.882;2023-05-02T04:14:01;5.18;;;2.72;;
70301;SDS011;57706;56.326;43.882;2023-05-02T04:16:28;4.93;;;2.75;;
70301;SDS011;57706;56.326;43.882;2023-05-02T04:18:55;3.80;;;3.13;;
70301;SDS011;57706;56.326;43.882;2023-05-02T04:21:21;3.15;;;2.65;;
70301;SDS011;57706;56.326;43.882;2023-05-02T04:23:47;3.83;;;2.83;;
70301;SDS011;57706;56.326;43.882;2023-05-02T04:26:13;4.15;;;3.05;;
70301;SDS011;57706;56.326;43.882;2023-05-02T04:28:47;4.80;;;3.10;;
70301;SDS011;57706;56.326;43.882;2023-05-02T04:31:14;5.05;;;3.53;;
70301;SDS011;57706;56.326;43.882;2023-05-02T04:33:42;3.08;;;2.58;;
70301;SDS011;57706;56.326;43.882;2023-05-02T04:36:09;4.82;;;2.28;;
70301;SDS011;57706;56.326;43.882;2023-05-02T04:38:36;3.88;;;2.75;;
70301;SDS011;57706;56.326;43.882;2023-05-02T04:41:02;3.92;;;2.60;;
70301;SDS011;57706;56.326;43.882;2023-05-02T04:43:36;5.50;;;2.90;;
70301;SDS011;57706;56.326;43.882;2023-05-02T04:46:02;7.93;;;2.83;;
70301;SDS011;57706;56.326;43.882;2023-05-02T04:48:32;4.20;;;3.10;;
70301;SDS011;57706;56.326;43.882;2023-05-02T04:50:58;3.75;;;2.88;;
70301;SDS011;57706;56.326;43.882;2023-05-02T04:53:25;5.00;;;2.85;;
70301;SDS011;57706;56.326;43.882;2023-05-02T04:55:52;3.17;;;2.63;;
70301;SDS011;57706;56.326;43.882;2023-05-02T04:58:17;3.85;;;3.00;;
70301;SDS011;57706;56.326;43.882;2023-05-02T05:00:48;7.03;;;3.13;;
70301;SDS011;57706;56.326;43.882;2023-05-02T05:03:13;3.45;;;2.85;;
70301;SDS011;57706;56.326;43.882;2023-05-02T05:05:39;5.78;;;2.80;;
70301;SDS011;57706;56.326;43.882;2023-05-02T05:08:08;3.40;;;3.10;;
70301;SDS011;57706;56.326;43.882;2023-05-02T05:10:36;4.65;;;3.15;;
70301;SDS011;57706;56.326;43.882;2023-05-02T05:13:02;3.00;;;2.67;;
70301;SDS011;57706;56.326;43.882;2023-05-02T05:15:30;4.05;;;2.80;;
70301;SDS011;57706;56.326;43.882;2023-05-02T05:17:59;4.95;;;2.88;;
70301;SDS011;57706;56.326;43.882;2023-05-02T05:20:25;9.65;;;2.80;;
70301;SDS011;57706;56.326;43.882;2023-05-02T05:22:54;12.95;;;6.60;;
70301;SDS011;57706;56.326;43.882;2023-05-02T05:25:21;6.00;;;4.43;;
70301;SDS011;57706;56.326;43.882;2023-05-02T05:27:49;4.68;;;3.53;;
70301;SDS011;57706;56.326;43.882;2023-05-02T05:30:17;5.57;;;3.10;;
70301;SDS011;57706;56.326;43.882;2023-05-02T05:32:43;3.17;;;2.83;;
70301;SDS011;57706;56.326;43.882;2023-05-02T05:35:09;8.65;;;3.28;;
70301;SDS011;57706;56.326;43.882;2023-05-02T05:37:36;7.72;;;3.00;;
70301;SDS011;57706;56.326;43.882;2023-05-02T05:40:07;3.03;;;2.72;;
70301;SDS011;57706;56.326;43.882;2023-05-02T05:42:34;4.65;;;2.97;;
70301;SDS011;57706;56.326;43.882;2023-05-02T05:45:05;6.30;;;3.15;;
70301;SDS011;57706;56.326;43.882;2023-05-02T05:47:32;6.18;;;3.53;;
70301;SDS011;57706;56.326;43.882;2023-05-02T05:49:58;4.28;;;2.72;;
70301;SDS011;57706;56.326;43.882;2023-05-02T05:52:31;6.50;;;3.35;;
70301;SDS011;57706;56.326;43.882;2023-05-02T05:54:59;3.35;;;2.90;;
70301;SDS011;57706;56.326;43.882;2023-05-02T05:57:31;3.97;;;3.00;;
70301;SDS011;57706;56.326;43.882;2023-05-02T05:59:58;6.05;;;3.10;;
70301;SDS011;57706;56.326;43.882;2023-05-02T06:02:25;6.30;;;3.83;;
70301;SDS011;57706;56.326;43.882;2023-05-02T06:04:51;4.32;;;3.42;;
70301;SDS011;57706;56.326;43.882;2023-05-02T06:07:20;3.25;;;2.95;;
70301;SDS011;57706;56.326;43.882;2023-05-02T06:09:46;3.78;;;3.00;;
70301;SDS011;57706;56.326;43.882;2023-05-02T06:12:13;3.13;;;2.70;;
70301;SDS011;57706;56.326;43.882;2023-05-02T06:14:41;4.13;;;3.00;;
70301;SDS011;57706;56.326;43.882;2023-05-02T06:17:07;3.55;;;2.80;;
70301;SDS011;57706;56.326;43.882;2023-05-02T06:19:33;3.55;;;2.33;;
70301;SDS011;57706;56.326;43.882;2023-05-02T06:22:00;3.88;;;2.97;;
70301;SDS011;57706;56.326;43.882;2023-05-02T06:24:26;3.17;;;2.88;;
70301;SDS011;57706;56.326;43.882;2023-05-02T06:26:52;4.15;;;2.60;;
70301;SDS011;57706;56.326;43.882;2023-05-02T06:29:18;4.07;;;3.08;;
70301;SDS011;57706;56.326;43.882;2023-05-02T06:31:43;3.70;;;2.80;;
70301;SDS011;57706;56.326;43.882;2023-05-02T06:34:09;6.28;;;3.10;;
70301;SDS011;57706;56.326;43.882;2023-05-02T06:36:35;3.05;;;2.75;;
70301;SDS011;57706;56.326;43.882;2023-05-02T06:39:01;2.63;;;2.28;;
70301;SDS011;57706;56.326;43.882;2023-05-02T06:41:27;3.45;;;2.58;;
70301;SDS011;57706;56.326;43.882;2023-05-02T06:43:53;5.00;;;3.20;;
70301;SDS011;57706;56.326;43.882;2023-05-02T06:46:19;4.22;;;2.70;;
70301;SDS011;57706;56.326;43.882;2023-05-02T06:48:45;3.53;;;2.67;;
70301;SDS011;57706;56.326;43.882;2023-05-02T06:51:12;3.83;;;2.30;;
70301;SDS011;57706;56.326;43.882;2023-05-02T06:53:39;3.63;;;2.53;;
70301;SDS011;57706;56.326;43.882;2023-05-02T06:56:05;2.90;;;2.47;;
70301;SDS011;57706;56.326;43.882;2023-05-02T06:58:30;6.10;;;2.72;;
70301;SDS011;57706;56.326;43.882;2023-05-02T07:00:56;3.97;;;2.40;;
70301;SDS011;57706;56.326;43.882;2023-05-02T07:03:22;4.45;;;3.03;;
70301;SDS011;57706;56.326;43.882;2023-05-02T07:05:48;6.63;;;2.85;;
70301;SDS011;57706;56.326;43.882;2023-05-02T07:08:14;4.25;;;3.00;;
70301;SDS011;57706;56.326;43.882;2023-05-02T07:10:40;5.22;;;3.08;;
70301;SDS011;57706;56.326;43.882;2023-05-02T07:13:06;5.55;;;2.75;;
70301;SDS011;57706;56.326;43.882;2023-05-02T07:15:32;7.03;;;2.90;;
70301;SDS011;57706;56.326;43.882;2023-05-02T07:17:58;3.78;;;2.67;;
70301;SDS011;57706;56.326;43.882;2023-05-02T07:20:24;5.72;;;2.97;;
70301;SDS011;57706;56.326;43.882;2023-05-02T07:22:49;3.67;;;3.00;;
70301;SDS011;57706;56.326;43.882;2023-05-02T07:25:15;4.15;;;3.38;;
70301;SDS011;57706;56.326;43.882;2023-05-02T07:27:41;6.40;;;3.15;;
70301;SDS011;57706;56.326;43.882;2023-05-02T07:30:07;8.43;;;2.75;;
70301;SDS011;57706;56.326;43.882;2023-05-02T07:32:33;4.32;;;2.78;;
70301;SDS011;57706;56.326;43.882;2023-05-02T07:34:59;2.67;;;2.47;;
70301;SDS011;57706;56.326;43.882;2023-05-02T07:37:26;2.60;;;2.38;;
70301;SDS011;57706;56.326;43.882;2023-05-02T07:39:57;3.03;;;2.70;;
70301;SDS011;57706;56.326;43.882;2023-05-02T07:42:27;5.60;;;2.63;;
70301;SDS011;57706;56.326;43.882;2023-05-02T07:44:54;2.90;;;2.60;;
70301;SDS011;57706;56.326;43.882;2023-05-02T07:47:20;3.80;;;2.70;;
70301;SDS011;57706;56.326;43.882;2023-05-02T07:49:49;6.82;;;2.50;;
70301;SDS011;57706;56.326;43.882;2023-05-02T07:52:15;4.13;;;2.85;;
70301;SDS011;57706;56.326;43.882;2023-05-02T07:54:41;3.90;;;2.65;;
70301;SDS011;57706;56.326;43.882;2023-05-02T07:57:07;3.75;;;2.55;;
70301;SDS011;57706;56.326;43.882;2023-05-02T07:59:33;4.97;;;2.50;;
70301;SDS011;57706;56.326;43.882;2023-05-02T08:01:59;3.58;;;2.20;;
70301;SDS011;57706;56.326;43.882;2023-05-02T08:04:25;4.30;;;2.60;;
70301;SDS011;57706;56.326;43.882;2023-05-02T08:06:51;4.15;;;2.88;;
70301;SDS011;57706;56.326;43.882;2023-05-02T08:09:17;7.80;;;2.53;;
70301;SDS011;57706;56.326;43.882;2023-05-02T08:11:43;2.83;;;2.53;;
70301;SDS011;57706;56.326;43.882;2023-05-02T08:14:09;6.03;;;2.33;;
70301;SDS011;57706;56.326;43.882;2023-05-02T08:16:35;3.60;;;2.22;;
70301;SDS011;57706;56.326;43.882;2023-05-02T08:19:01;2.88;;;2.67;;
70301;SDS011;57706;56.326;43.882;2023-05-02T08:21:27;2.60;;;2.40;;
70301;SDS011;57706;56.326;43.882;2023-05-02T08:23:56;3.38;;;2.20;;
70301;SDS011;57706;56.326;43.882;2023-05-02T08:26:26;2.90;;;2.60;;
70301;SDS011;57706;56.326;43.882;2023-05-02T08:28:53;5.80;;;2.85;;
70301;SDS011;57706;56.326;43.882;2023-05-02T08:31:19;6.38;;;3.08;;
70301;SDS011;57706;56.326;43.882;2023-05-02T08:33:45;7.60;;;2.92;;
70301;SDS011;57706;56.326;43.882;2023-05-02T08:36:13;3.85;;;2.80;;
70301;SDS011;57706;56.326;43.882;2023-05-02T08:38:40;3.17;;;2.65;;
70301;SDS011;57706;56.326;43.882;2023-05-02T08:41:09;4.00;;;2.70;;
70301;SDS011;57706;56.326;43.882;2023-05-02T08:43:37;5.93;;;2.97;;
70301;SDS011;57706;56.326;43.882;2023-05-02T08:46:03;4.63;;;3.08;;
70301;SDS011;57706;56.326;43.882;2023-05-02T08:48:32;5.47;;;2.92;;
70301;SDS011;57706;56.326;43.882;2023-05-02T08:51:00;4.45;;;3.00;;
70301;SDS011;57706;56.326;43.882;2023-05-02T08:53:28;3.88;;;2.80;;
70301;SDS011;57706;56.326;43.882;2023-05-02T08:55:58;5.18;;;2.33;;
70301;SDS011;57706;56.326;43.882;2023-05-02T08:58:24;2.72;;;2.47;;
70301;SDS011;57706;56.326;43.882;2023-05-02T09:00:50;3.50;;;2.80;;
70301;SDS011;57706;56.326;43.882;2023-05-02T09:06:04;5.30;;;2.42;;
70301;SDS011;57706;56.326;43.882;2023-05-02T09:08:31;4.05;;;2.80;;
70301;SDS011;57706;56.326;43.882;2023-05-02T09:10:58;3.30;;;2.97;;
70301;SDS011;57706;56.326;43.882;2023-05-02T09:16:28;3.17;;;2.70;;
70301;SDS011;57706;56.326;43.882;2023-05-02T09:19:02;3.80;;;2.28;;
70301;SDS011;57706;56.326;43.882;2023-05-02T09:21:35;2.55;;;2.30;;
70301;SDS011;57706;56.326;43.882;2023-05-02T09:24:13;7.05;;;2.65;;
70301;SDS011;57706;56.326;43.882;2023-05-02T09:26:41;3.53;;;2.08;;
70301;SDS011;57706;56.326;43.882;2023-05-02T09:29:08;2.78;;;2.35;;
70301;SDS011;57706;56.326;43.882;2023-05-02T09:31:34;2.55;;;2.35;;
70301;SDS011;57706;56.326;43.882;2023-05-02T09:34:07;3.10;;;2.80;;
70301;SDS011;57706;56.326;43.882;2023-05-02T09:36:41;4.13;;;2.55;;
70301;SDS011;57706;56.326;43.882;2023-05-02T09:39:10;4.03;;;2.70;;
70301;SDS011;57706;56.326;43.882;2023-05-02T09:41:41;7.70;;;3.00;;
70301;SDS011;57706;56.326;43.882;2023-05-02T09:44:12;3.90;;;3.10;;
70301;SDS011;57706;56.326;43.882;2023-05-02T09:46:39;6.05;;;2.60;;
70301;SDS011;57706;56.326;43.882;2023-05-02T09:49:06;2.60;;;2.22;;
70301;SDS011;57706;56.326;43.882;2023-05-02T09:51:34;3.03;;;2.20;;
70301;SDS011;57706;56.326;43.882;2023-05-02T09:54:00;3.97;;;2.40;;
70301;SDS011;57706;56.326;43.882;2023-05-02T09:56:26;2.33;;;1.98;;
70301;SDS011;57706;56.326;43.882;2023-05-02T09:59:11;5.07;;;2.20;;
70301;SDS011;57706;56.326;43.882;2023-05-02T10:01:39;4.90;;;2.45;;
70301;SDS011;57706;56.326;43.882;2023-05-02T10:04:12;4.80;;;2.80;;
70301;SDS011;57706;56.326;43.882;2023-05-02T10:06:43;4.10;;;2.78;;
70301;SDS011;57706;56.326;43.882;2023-05-02T10:09:10;3.55;;;2.40;;
70301;SDS011;57706;56.326;43.882;2023-05-02T10:11:38;5.20;;;2.58;;
70301;SDS011;57706;56.326;43.882;2023-05-02T10:14:09;3.65;;;3.10;;
70301;SDS011;57706;56.326;43.882;2023-05-02T10:16:37;5.63;;;3.30;;
70301;SDS011;57706;56.326;43.882;2023-05-02T10:19:11;8.63;;;2.55;;
70301;SDS011;57706;56.326;43.882;2023-05-02T10:21:45;3.13;;;2.33;;
70301;SDS011;57706;56.326;43.882;2023-05-02T10:24:11;4.25;;;2.30;;
70301;SDS011;57706;56.326;43.882;2023-05-02T10:26:38;3.58;;;2.30;;
70301;SDS011;57706;56.326;43.882;2023-05-02T10:29:04;5.05;;;2.47;;
70301;SDS011;57706;56.326;43.882;2023-05-02T10:31:33;3.45;;;3.15;;
70301;SDS011;57706;56.326;43.882;2023-05-02T10:33:59;3.88;;;2.58;;
70301;SDS011;57706;56.326;43.882;2023-05-02T10:36:27;2.63;;;2.30;;
70301;SDS011;57706;56.326;43.882;2023-05-02T10:38:53;2.42;;;1.90;;
70301;SDS011;57706;56.326;43.882;2023-05-02T10:41:20;4.20;;;2.25;;
70301;SDS011;57706;56.326;43.882;2023-05-02T10:43:50;3.15;;;2.60;;
70301;SDS011;57706;56.326;43.882;2023-05-02T10:46:36;2.95;;;2.33;;
70301;SDS011;57706;56.326;43.882;2023-05-02T10:51:31;3.45;;;1.92;;
70301;SDS011;57706;56.326;43.882;2023-05-02T10:59:32;4.63;;;2.53;;
70301;SDS011;57706;56.326;43.882;2023-05-02T11:01:58;9.50;;;2.67;;
70301;SDS011;57706;56.326;43.882;2023-05-02T11:04:25;10.20;;;2.72;;
70301;SDS011;57706;56.326;43.882;2023-05-02T11:07:35;2.33;;;2.10;;
70301;SDS011;57706;56.326;43.882;2023-05-02T11:10:23;4.18;;;2.40;;
70301;SDS011;57706;56.326;43.882;2023-05-02T11:12:51;5.38;;;2.90;;
70301;SDS011;57706;56.326;43.882;2023-05-02T11:17:57;3.47;;;2.20;;
70301;SDS011;57706;56.326;43.882;2023-05-02T11:20:28;3.00;;;2.30;;
70301;SDS011;57706;56.326;43.882;2023-05-02T11:22:57;2.10;;;1.88;;
70301;SDS011;57706;56.326;43.882;2023-05-02T11:25:42;5.60;;;2.33;;
70301;SDS011;57706;56.326;43.882;2023-05-02T11:31:01;6.38;;;2.65;;
70301;SDS011;57706;56.326;43.882;2023-05-02T11:33:28;2.95;;;2.50;;
70301;SDS011;57706;56.326;43.882;2023-05-02T11:35:54;3.78;;;2.30;;
70301;SDS011;57706;56.326;43.882;2023-05-02T11:38:22;2.72;;;2.15;;
70301;SDS011;57706;56.326;43.882;2023-05-02T11:40:53;4.32;;;2.17;;
70301;SDS011;57706;56.326;43.882;2023-05-02T11:43:24;5.65;;;3.00;;
70301;SDS011;57706;56.326;43.882;2023-05-02T11:45:55;2.90;;;1.90;;
70301;SDS011;57706;56.326;43.882;2023-05-02T11:48:24;3.65;;;2.35;;
70301;SDS011;57706;56.326;43.882;2023-05-02T11:50:53;7.82;;;2.40;;
70301;SDS011;57706;56.326;43.882;2023-05-02T11:53:21;2.75;;;2.35;;
70301;SDS011;57706;56.326;43.882;2023-05-02T11:55:52;2.35;;;2.15;;
70301;SDS011;57706;56.326;43.882;2023-05-02T11:58:23;6.28;;;2.20;;
70301;SDS011;57706;56.326;43.882;2023-05-02T12:00:51;3.10;;;2.30;;
70301;SDS011;57706;56.326;43.882;2023-05-02T12:03:19;3.38;;;2.85;;
70301;SDS011;57706;56.326;43.882;2023-05-02T12:05:49;3.30;;;2.05;;
70301;SDS011;57706;56.326;43.882;2023-05-02T12:08:23;2.65;;;2.45;;
70301;SDS011;57706;56.326;43.882;2023-05-02T12:10:51;2.35;;;1.85;;
70301;SDS011;57706;56.326;43.882;2023-05-02T12:13:19;4.78;;;2.30;;
70301;SDS011;57706;56.326;43.882;2023-05-02T12:15:47;2.45;;;2.25;;
70301;SDS011;57706;56.326;43.882;2023-05-02T12:18:15;3.58;;;2.95;;
70301;SDS011;57706;56.326;43.882;2023-05-02T12:20:42;4.15;;;2.30;;
70301;SDS011;57706;56.326;43.882;2023-05-02T12:23:09;2.30;;;2.10;;
70301;SDS011;57706;56.326;43.882;2023-05-02T12:25:37;3.17;;;2.30;;
70301;SDS011;57706;56.326;43.882;2023-05-02T12:28:06;4.05;;;2.13;;
70301;SDS011;57706;56.326;43.882;2023-05-02T12:30:33;1.90;;;1.75;;
70301;SDS011;57706;56.326;43.882;2023-05-02T12:33:03;3.10;;;1.83;;
70301;SDS011;57706;56.326;43.882;2023-05-02T12:35:29;4.50;;;2.05;;
70301;SDS011;57706;56.326;43.882;2023-05-02T12:40:51;2.55;;;1.50;;
70301;SDS011;57706;56.326;43.882;2023-05-02T12:43:19;5.10;;;1.75;;
70301;SDS011;57706;56.326;43.882;2023-05-02T12:45:46;3.15;;;2.10;;
70301;SDS011;57706;56.326;43.882;2023-05-02T12:48:16;2.63;;;2.08;;
70301;SDS011;57706;56.326;43.882;2023-05-02T12:50:53;2.40;;;1.98;;
70301;SDS011;57706;56.326;43.882;2023-05-02T12:56:09;2.58;;;1.98;;
70301;SDS011;57706;56.326;43.882;2023-05-02T12:58:39;2.97;;;2.20;;
70301;SDS011;57706;56.326;43.882;2023-05-02T13:01:09;3.47;;;2.13;;
70301;SDS011;57706;56.326;43.882;2023-05-02T13:03:36;2.85;;;1.83;;
70301;SDS011;57706;56.326;43.882;2023-05-02T13:06:02;8.68;;;2.55;;
70301;SDS011;57706;56.326;43.882;2023-05-02T13:08:28;9.23;;;2.55;;
70301;SDS011;57706;56.326;43.882;2023-05-02T13:10:54;11.30;;;2.38;;
70301;SDS011;57706;56.326;43.882;2023-05-02T13:13:20;6.68;;;2.03;;
70301;SDS011;57706;56.326;43.882;2023-05-02T13:15:46;4.82;;;2.63;;
70301;SDS011;57706;56.326;43.882;2023-05-02T13:18:13;5.88;;;2.65;;
70301;SDS011;57706;56.326;43.882;2023-05-02T13:20:38;4.45;;;2.25;;
70301;SDS011;57706;56.326;43.882;2023-05-02T13:23:04;5.05;;;2.42;;
70301;SDS011;57706;56.326;43.882;2023-05-02T13:25:30;4.50;;;2.40;;
70301;SDS011;57706;56.326;43.882;2023-05-02T13:27:56;9.10;;;2.58;;
70301;SDS011;57706;56.326;43.882;2023-05-02T13:30:23;2.65;;;2.28;;
70301;SDS011;57706;56.326;43.882;2023-05-02T13:32:49;2.55;;;2.22;;
70301;SDS011;57706;56.326;43.882;2023-05-02T13:35:15;3.63;;;2.47;;
70301;SDS011;57706;56.326;43.882;2023-05-02T13:37:41;5.72;;;2.70;;
70301;SDS011;57706;56.326;43.882;2023-05-02T13:40:07;3.40;;;2.28;;
70301;SDS011;57706;56.326;43.882;2023-05-02T13:42:33;4.38;;;2.65;;
70301;SDS011;57706;56.326;43.882;2023-05-02T13:44:59;3.42;;;2.40;;
70301;SDS011;57706;56.326;43.882;2023-05-02T13:47:31;2.13;;;1.92;;
70301;SDS011;57706;56.326;43.882;2023-05-02T13:49:57;4.65;;;2.60;;
70301;SDS011;57706;56.326;43.882;2023-05-02T13:52:23;5.00;;;2.38;;
70301;SDS011;57706;56.326;43.882;2023-05-02T13:54:49;4.80;;;2.42;;
70301;SDS011;57706;56.326;43.882;2023-05-02T13:57:15;2.15;;;1.95;;
70301;SDS011;57706;56.326;43.882;2023-05-02T13:59:41;2.80;;;1.92;;
70301;SDS011;57706;56.326;43.882;2023-05-02T14:02:07;2.75;;;1.92;;
70301;SDS011;57706;56.326;43.882;2023-05-02T14:04:33;5.65;;;2.33;;
70301;SDS011;57706;56.326;43.882;2023-05-02T14:06:59;3.45;;;2.30;;
70301;SDS011;57706;56.326;43.882;2023-05-02T14:09:24;3.13;;;2.40;;
70301;SDS011;57706;56.326;43.882;2023-05-02T14:11:50;4.47;;;2.55;;
70301;SDS011;57706;56.326;43.882;2023-05-02T14:14:16;4.55;;;2.60;;
70301;SDS011;57706;56.326;43.882;2023-05-02T14:16:42;5.60;;;2.60;;
70301;SDS011;57706;56.326;43.882;2023-05-02T14:19:08;3.45;;;2.40;;
70301;SDS011;57706;56.326;43.882;2023-05-02T14:21:34;3.42;;;2.53;;
70301;SDS011;57706;56.326;43.882;2023-05-02T14:24:01;6.45;;;2.50;;
70301;SDS011;57706;56.326;43.882;2023-05-02T14:26:27;3.15;;;2.28;;
70301;SDS011;57706;56.326;43.882;2023-05-02T14:28:53;3.80;;;2.15;;
70301;SDS011;57706;56.326;43.882;2023-05-02T14:31:19;4.38;;;2.03;;
70301;SDS011;57706;56.326;43.882;2023-05-02T14:33:45;3.28;;;2.00;;
70301;SDS011;57706;56.326;43.882;2023-05-02T14:36:11;2.85;;;2.00;;
70301;SDS011;57706;56.326;43.882;2023-05-02T14:38:37;2.67;;;2.08;;
70301;SDS011;57706;56.326;43.882;2023-05-02T14:41:02;5.68;;;2.13;;
70301;SDS011;57706;56.326;43.882;2023-05-02T14:43:28;3.58;;;2.00;;
70301;SDS011;57706;56.326;43.882;2023-05-02T14:45:54;5.65;;;2.63;;
70301;SDS011;57706;56.326;43.882;2023-05-02T14:48:21;2.42;;;2.22;;
70301;SDS011;57706;56.326;43.882;2023-05-02T14:50:47;4.30;;;2.17;;
70301;SDS011;57706;56.326;43.882;2023-05-02T14:53:12;13.18;;;9.63;;
70301;SDS011;57706;56.326;43.882;2023-05-02T14:55:38;3.22;;;2.53;;
70301;SDS011;57706;56.326;43.882;2023-05-02T14:58:05;2.95;;;2.35;;
70301;SDS011;57706;56.326;43.882;2023-05-02T15:00:33;7.05;;;2.53;;
70301;SDS011;57706;56.326;43.882;2023-05-02T15:03:05;5.53;;;2.38;;
70301;SDS011;57706;56.326;43.882;2023-05-02T15:05:32;4.20;;;2.88;;
70301;SDS011;57706;56.326;43.882;2023-05-02T15:07:58;3.08;;;2.20;;
70301;SDS011;57706;56.326;43.882;2023-05-02T15:10:24;6.85;;;2.60;;
70301;SDS011;57706;56.326;43.882;2023-05-02T15:12:50;3.45;;;2.33;;
70301;SDS011;57706;56.326;43.882;2023-05-02T15:15:17;4.40;;;2.42;;
70301;SDS011;57706;56.326;43.882;2023-05-02T15:17:43;6.28;;;3.05;;
70301;SDS011;57706;56.326;43.882;2023-05-02T15:20:09;2.60;;;2.40;;
70301;SDS011;57706;56.326;43.882;2023-05-02T15:22:36;3.05;;;2.30;;
70301;SDS011;57706;56.326;43.882;2023-05-02T15:25:02;3.58;;;2.53;;
70301;SDS011;57706;56.326;43.882;2023-05-02T15:27:31;4.00;;;2.42;;